الصفحة الرئيسية
METAR-TAF:

METAR-TAF

مطار :

Ponta Delgada, الأزور, البرتغال

دائرة عرض: 37-44N, خط طول: 025-42W, ارتفاع: 71 متر

مراقبة الطقس الحالي

تاريخ ووقت الإصدار 42 دقيقة قبل الساعة 21:30UTC
ريح 6 عقدة من الشمال الشرقي, الاتجاه يتراوح بين الشمال و الشرق
درجة الحرارة 18°درجة مئوية
الرطوبة 73%
ضغط 1032 hPa
الرؤية 10 كم أو أكثر
غيوم قليلة على ارتفاع 2200 قدم
غيوم متفرقة على ارتفاع 4000 قدم

METAR: LPPD 172130Z 05006KT 010V080 9999 FEW022 SCT040 18/13 Q1032

زمن: 22:12 (22:12 UTC)

توقعات

تاريخ ووقت الإصدار 5ساعات و 12 دقيقة قبل الساعة 17:00UTC
التوقعات صالحة من17 الساعة 18 UTC إلى 18 الساعة 18 UTC
ريح 8 عقدة من الشمال/الشمال الشرقي
الرؤية 10 كم أو أكثر
غيوم متفرقة على ارتفاع 2000 قدم
مؤقت
من 17 الساعة 18 UTC إلى 18 الساعة 18 UTC
غيوم قليلة على ارتفاع 1800 قدم
غيوم مفككة على ارتفاع 4000 قدم
أصبح
من 17 الساعة 21 UTC إلى 17 الساعة 24 UTC
ريح 5 عقدةمن اتجاهات متغيرة

TAF: LPPD 171700Z 1718/1818 03008KT 9999 SCT020 TEMPO 1718/1818 FEW018 BKN040 BECMG 1721/1724 VRB05KT

أرصاد الطقس والتوقعات من أكثر من 4000 مطار (تقارير الطقس للمطار METAR والتنبؤ بالطقس بالمطارTAF).

المحطات المتاحة هي النقط الصفراء والحمراء على الخريطة.

حرك المؤشر فوق النقطة لمعرفة اسم المحطة.

ثم انقر لمعرفة أرصاد وتوقعات الطقس.

لتغيير الخارطة: اضغط على الأزرار الخضراء مع رمز الصليب الأسود للتكبير. على الزر الأخضر مع شرطة للتصغير، أو على الأسهم الخضراء للخرائط المجاورة.


METAR-TAF: